ADDS METAR Data INFO
IDs: Format: Raw Decoded Include TAF

Data at: 0202 UTC 26 Apr 2017

METAR for:KPEZ (Pleasanton Muni, TX, US)
Text:KPEZ 260155Z AUTO 12010G17KT 10SM CLR 26/22 A2947 RMK AO2 T02640217
Temperature: 26.4°C ( 80°F)
Dewpoint: 21.7°C ( 71°F) [RH = 75%]
Pressure (altimeter):29.47 inches Hg ( 998.1 mb)
Winds:from the ESE (120 degrees) at 12 MPH (10 knots; 5.1 m/s) gusting to 20 MPH (17 knots; 8.7 m/s)
Visibility:10 or more sm (16+ km)
Ceiling:at least 12,000 feet AGL
Clouds:sky clear below 12,000 feet AGL
QC Flag:automated observation with no human augmentation


Page loaded:  02:02 UTC  |   07:02 PM Pacific  |   08:02 PM Mountain  |   09:02 PM Central  |   10:02 PM Eastern

 

ADVISORIES

FORECASTS

FORECASTS

OBSERVATIONS

USER TOOLS

ABOUT US